Hardeeville, South Carolina
Current Conditions -  °F | °C
As of 7:53 AM on Friday 31 Oct 2014 (Local Time) from KSAV Reporting Station
Haze Haze  
Wind Chill: 52°   Ceiling: Unl
Heat Index: 52°   Visibility: 6mi
Dew Point: 49°   Wind: 0mph
Humidity: 89%   Direction: NA
Pressure: 29.9"   Gusts: NA
Location:  32.29°N, 81.08°W
Report Text: KSAV 311153Z 00000KT 6SM BR FEW030 SCT120 11/09 A2990 RMK AO2 SLP125 T01110094 10144 20111 53005
Loading
Personal Weather Stations






























Interactive Weather Map
Tropical Storm Tracking
New forecast layout! Learn more

10-Day Weather Forecast

Advertisements
Track Severe Weather on mobile